createdAt,value
2018-03-09T00:52:58.756Z,4.70
2018-03-09T00:55:27.079Z,4.70
2018-03-09T01:10:32.880Z,4.60
2018-03-09T01:13:01.171Z,4.70
2018-03-09T01:15:29.421Z,4.70
2018-03-09T01:17:57.712Z,4.60
2018-03-09T01:20:26.096Z,4.70
2018-03-09T01:22:54.344Z,4.70
2018-03-09T01:25:23.653Z,4.60
2018-03-09T01:27:52.009Z,4.70
2018-03-09T01:30:20.532Z,4.70
2018-03-09T01:32:48.839Z,4.70
2018-03-09T01:35:17.090Z,4.70
2018-03-09T01:37:45.426Z,4.60
2018-03-09T01:55:44.064Z,4.60
2018-03-09T01:58:12.481Z,4.60
2018-03-09T02:01:07.255Z,4.60
2018-03-09T02:03:35.677Z,4.60
2018-03-09T02:06:04.220Z,4.50
2018-03-09T02:08:33.371Z,4.50
2018-03-09T02:11:02.111Z,4.50
2018-03-09T02:13:31.343Z,4.50
2018-03-09T02:15:59.812Z,4.50
2018-03-09T02:18:28.293Z,4.50
2018-03-09T02:20:56.787Z,4.60
2018-03-09T02:23:25.165Z,4.50
2018-03-09T02:25:54.318Z,4.60
2018-03-09T02:28:23.470Z,4.60
2018-03-09T02:30:51.813Z,4.50
2018-03-09T02:33:20.393Z,4.60
2018-03-09T02:35:48.941Z,4.60
2018-03-09T02:38:17.431Z,4.60
2018-03-09T02:43:57.327Z,4.50
2018-03-09T02:46:25.737Z,4.40
2018-03-09T02:48:54.128Z,4.30
2018-03-09T02:51:22.756Z,4.30
2018-03-09T02:53:51.122Z,4.30
2018-03-09T02:56:19.487Z,4.30
2018-03-09T02:58:47.875Z,4.30
2018-03-09T03:01:17.188Z,4.40
2018-03-09T03:03:45.936Z,4.30
2018-03-09T03:06:15.093Z,4.30
2018-03-09T03:08:43.656Z,4.30
2018-03-09T03:11:38.574Z,4.30
2018-03-09T03:14:07.935Z,4.30
2018-03-09T03:16:36.297Z,4.30
2018-03-09T03:19:04.688Z,4.30
2018-03-09T03:21:33.059Z,4.30
2018-03-09T03:24:01.578Z,4.30
2018-03-09T03:26:30.015Z,4.30
2018-03-09T03:28:58.497Z,4.30
2018-03-09T03:31:27.076Z,4.40
2018-03-09T03:33:55.411Z,4.40
2018-03-09T03:36:23.831Z,4.40
2018-03-09T03:38:52.384Z,4.40
2018-03-09T03:41:20.840Z,4.40
2018-03-09T03:43:49.948Z,4.40
2018-03-09T03:46:18.367Z,4.30
2018-03-09T03:48:46.804Z,4.30
2018-03-09T03:51:15.400Z,4.30
2018-03-09T03:53:43.811Z,4.30
2018-03-09T03:56:12.218Z,4.30
2018-03-09T03:58:41.397Z,4.30
2018-03-09T04:01:17.461Z,4.30
2018-03-09T04:03:46.768Z,4.30
2018-03-09T04:06:16.013Z,4.30
2018-03-09T04:08:44.359Z,4.30
2018-03-09T04:11:12.791Z,4.30
2018-03-09T04:13:41.136Z,4.30
2018-03-09T04:16:09.644Z,4.30
2018-03-09T04:18:37.872Z,4.30
2018-03-09T04:21:06.762Z,4.30
2018-03-09T04:23:36.126Z,4.20
2018-03-09T04:26:04.563Z,4.20
2018-03-09T04:28:33.037Z,4.20
2018-03-09T04:31:01.395Z,4.30
2018-03-09T04:33:29.738Z,4.30
2018-03-09T04:35:59.725Z,4.30
2018-03-09T04:38:28.261Z,4.30
2018-03-09T04:40:57.451Z,4.40
2018-03-09T04:43:26.525Z,4.30
2018-03-09T04:45:55.856Z,4.30
2018-03-09T04:48:25.005Z,4.30
2018-03-09T04:50:53.418Z,4.40
2018-03-09T04:53:22.628Z,4.30
2018-03-09T04:55:51.047Z,4.30
2018-03-09T04:58:19.511Z,4.40
2018-03-09T05:00:47.848Z,4.40
2018-03-09T05:03:17.148Z,4.50
2018-03-09T05:05:45.520Z,4.50
2018-03-09T05:08:13.937Z,4.40
2018-03-09T05:10:42.351Z,4.40
2018-03-09T05:13:11.552Z,4.40
2018-03-09T05:15:39.996Z,4.40
2018-03-09T05:18:08.621Z,4.50
2018-03-09T05:20:37.241Z,4.50
2018-03-09T05:23:05.757Z,4.50
2018-03-09T05:25:34.180Z,4.50
2018-03-09T05:28:02.677Z,4.50
2018-03-09T05:30:31.796Z,4.50
2018-03-09T05:33:00.413Z,4.50
2018-03-09T05:35:28.827Z,4.50
2018-03-09T05:37:57.991Z,4.40
2018-03-09T05:40:26.370Z,4.40
2018-03-09T05:42:54.779Z,4.40
2018-03-09T05:45:23.411Z,4.50
2018-03-09T05:47:51.851Z,4.50
2018-03-09T05:50:20.374Z,4.50
2018-03-09T05:52:48.841Z,4.50
2018-03-09T05:55:17.164Z,4.50
2018-03-09T05:57:45.430Z,4.50
2018-03-09T06:00:13.855Z,4.50
2018-03-09T06:02:42.379Z,4.50
2018-03-09T06:05:10.813Z,4.50
2018-03-09T06:07:39.135Z,4.40
2018-03-09T06:10:07.607Z,4.40
2018-03-09T06:12:36.152Z,4.30
2018-03-09T06:15:04.780Z,4.40
2018-03-09T06:17:34.024Z,4.40
2018-03-09T06:20:02.711Z,4.40
2018-03-09T06:22:31.232Z,4.50
2018-03-09T06:24:59.618Z,4.40
2018-03-09T06:27:28.140Z,4.40
2018-03-09T06:29:57.375Z,4.30
2018-03-09T06:32:25.889Z,4.30
2018-03-09T06:34:54.275Z,4.30
2018-03-09T06:37:22.745Z,4.30
2018-03-09T06:39:51.034Z,4.30
2018-03-09T06:42:20.076Z,4.30
2018-03-09T06:44:48.367Z,4.30
2018-03-09T06:47:16.603Z,4.40
2018-03-09T06:49:44.792Z,4.40
2018-03-09T06:52:13.144Z,4.50
2018-03-09T06:54:42.151Z,4.50
2018-03-09T06:57:10.377Z,4.50
2018-03-09T06:59:38.596Z,4.60
2018-03-09T07:02:06.779Z,4.50
2018-03-09T07:04:34.946Z,4.50
2018-03-09T07:07:03.198Z,4.50
2018-03-09T07:09:32.173Z,4.60
2018-03-09T07:12:00.375Z,4.60
2018-03-09T07:14:29.323Z,4.70
2018-03-09T07:16:57.530Z,4.60
2018-03-09T07:19:26.511Z,4.60
2018-03-09T07:21:55.727Z,4.70
2018-03-09T07:24:24.717Z,4.70
2018-03-09T07:26:52.927Z,4.70
2018-03-09T07:29:21.151Z,4.80
2018-03-09T07:31:50.084Z,4.90
2018-03-09T07:34:18.292Z,4.80
2018-03-09T07:36:46.469Z,4.90
2018-03-09T07:39:14.664Z,4.90
2018-03-09T07:41:42.857Z,4.90
2018-03-09T07:44:11.804Z,4.90
2018-03-09T07:46:40.048Z,4.90
2018-03-09T07:49:08.317Z,4.90
2018-03-09T07:51:37.157Z,4.90
2018-03-09T07:54:05.386Z,4.80
2018-03-09T07:56:33.615Z,4.80
2018-03-09T07:59:01.862Z,4.70
2018-03-09T08:01:30.016Z,4.70
2018-03-09T08:03:58.183Z,4.80
2018-03-09T08:06:29.282Z,4.90
2018-03-09T08:08:58.274Z,4.90
2018-03-09T08:11:27.243Z,4.90
2018-03-09T08:13:55.494Z,4.90
2018-03-09T08:16:23.801Z,4.90
2018-03-09T08:18:52.076Z,5.10
2018-03-09T08:21:20.361Z,5.10
2018-03-09T08:23:48.508Z,5.10
2018-03-09T08:26:16.937Z,5.20
2018-03-09T08:28:45.766Z,5.20
2018-03-09T08:31:14.259Z,5.20
2018-03-09T08:33:42.847Z,5.40
2018-03-09T08:36:11.131Z,5.40
2018-03-09T08:38:39.370Z,5.50
2018-03-09T08:41:07.676Z,5.50
2018-03-09T08:43:35.911Z,5.50
2018-03-09T08:46:04.158Z,5.60
2018-03-09T08:48:33.048Z,5.80
2018-03-09T08:51:01.431Z,5.80
2018-03-09T08:53:29.680Z,5.80
2018-03-09T08:55:58.634Z,5.90
2018-03-09T08:58:26.864Z,5.90
2018-03-09T09:00:55.098Z,5.80
2018-03-09T09:03:23.647Z,5.90
2018-03-09T09:05:51.868Z,5.90
2018-03-09T09:08:20.065Z,5.80
2018-03-09T09:10:48.289Z,5.80
2018-03-09T09:13:16.597Z,5.80
2018-03-09T09:15:44.959Z,5.90
2018-03-09T09:18:13.239Z,6.00
2018-03-09T09:20:41.481Z,6.00
2018-03-09T09:23:09.667Z,6.10
2018-03-09T09:25:38.122Z,6.20
2018-03-09T09:28:06.434Z,6.10
2018-03-09T09:45:07.791Z,6.20
2018-03-09T09:51:07.418Z,6.50
2018-03-09T10:10:22.572Z,6.60
2018-03-09T10:12:50.826Z,6.60
2018-03-09T10:15:19.048Z,6.70
2018-03-09T10:17:47.263Z,6.70
2018-03-09T10:20:15.697Z,6.70
2018-03-09T10:22:44.007Z,6.70
2018-03-09T10:25:12.249Z,6.70
2018-03-09T10:27:41.383Z,6.60
2018-03-09T10:30:09.625Z,6.60
2018-03-09T10:32:38.567Z,6.50
2018-03-09T10:35:06.805Z,6.50
2018-03-09T10:37:35.766Z,6.50
2018-03-09T10:40:03.980Z,6.50
2018-03-09T10:42:32.247Z,6.50
2018-03-09T10:45:01.210Z,6.30
2018-03-09T10:47:29.375Z,6.30
2018-03-09T10:49:57.782Z,6.30
2018-03-09T10:52:26.763Z,6.30
2018-03-09T10:54:55.713Z,6.50
2018-03-09T10:57:23.907Z,6.50
2018-03-09T10:59:52.113Z,6.60
2018-03-09T11:02:21.116Z,6.80
2018-03-09T11:04:49.279Z,6.70
2018-03-09T11:07:18.206Z,6.90
2018-03-09T11:09:46.422Z,6.80
2018-03-09T11:12:14.606Z,6.90
2018-03-09T11:14:43.595Z,6.90
2018-03-09T11:17:11.887Z,6.80
2018-03-09T11:19:40.181Z,6.80
2018-03-09T11:22:08.395Z,6.80
2018-03-09T11:24:36.585Z,6.80
2018-03-09T11:27:06.326Z,6.80
2018-03-09T11:29:35.304Z,6.90
2018-03-09T11:32:04.297Z,6.90
2018-03-09T11:34:33.419Z,7.10
2018-03-09T11:37:02.505Z,7.10
2018-03-09T11:39:30.747Z,7.10
2018-03-09T11:41:58.928Z,7.30
2018-03-09T11:44:27.937Z,7.60
2018-03-09T11:46:56.145Z,7.60
2018-03-09T11:49:24.369Z,7.80
2018-03-09T11:51:53.402Z,8.00
2018-03-09T11:54:21.634Z,8.00
2018-03-09T11:56:50.570Z,8.00
2018-03-09T11:59:18.825Z,8.00
2018-03-09T12:01:47.079Z,8.10
2018-03-09T12:04:16.049Z,8.20
2018-03-09T12:06:44.272Z,8.20
2018-03-09T12:09:12.553Z,8.10
2018-03-09T12:11:40.798Z,8.20
2018-03-09T12:14:09.748Z,8.10
2018-03-09T12:16:37.940Z,8.10
2018-03-09T12:19:06.208Z,8.10
2018-03-09T12:21:34.419Z,8.10
2018-03-09T12:24:03.470Z,7.90
2018-03-09T12:26:32.475Z,7.90
2018-03-09T12:29:00.859Z,7.90
2018-03-09T12:31:29.184Z,7.80
2018-03-09T12:33:57.437Z,7.90
2018-03-09T12:36:25.682Z,7.90
2018-03-09T12:38:53.910Z,7.90
2018-03-09T12:41:22.546Z,8.20
2018-03-09T12:43:50.706Z,8.40
2018-03-09T12:46:19.050Z,8.40
2018-03-09T12:48:47.249Z,8.40
2018-03-09T12:51:15.483Z,8.30
2018-03-09T12:53:43.763Z,8.30
2018-03-09T12:56:12.091Z,8.30
2018-03-09T12:58:40.463Z,8.30
2018-03-09T13:01:08.671Z,8.30
2018-03-09T13:03:37.822Z,8.20
2018-03-09T13:06:06.123Z,8.20
2018-03-09T13:08:35.053Z,8.40
2018-03-09T13:11:03.338Z,8.40
2018-03-09T13:13:31.487Z,8.50
2018-03-09T13:15:59.845Z,8.50
2018-03-09T13:18:34.704Z,8.70
2018-03-09T13:21:02.890Z,8.60
2018-03-09T13:23:31.059Z,8.70
2018-03-09T13:25:59.255Z,8.60
2018-03-09T13:28:27.436Z,8.50
2018-03-09T13:30:55.625Z,8.30
2018-03-09T13:33:23.858Z,8.20
2018-03-09T13:35:52.106Z,8.10
2018-03-09T13:38:20.422Z,8.10
2018-03-09T13:40:48.700Z,8.20
2018-03-09T13:43:16.906Z,8.20
2018-03-09T13:45:45.390Z,8.30
2018-03-09T13:48:15.236Z,8.10
2018-03-09T13:50:43.531Z,8.00
2018-03-09T13:53:11.730Z,8.00
2018-03-09T13:55:39.987Z,7.90
2018-03-09T13:58:08.217Z,7.80
2018-03-09T14:00:37.138Z,7.90
2018-03-09T14:03:05.394Z,7.90
2018-03-09T14:05:33.539Z,8.00
2018-03-09T14:08:02.522Z,8.00
2018-03-09T14:10:30.742Z,8.00
2018-03-09T14:12:58.923Z,8.10
2018-03-09T14:15:27.111Z,8.10
2018-03-09T14:17:55.321Z,8.10
2018-03-09T14:20:23.526Z,8.10
2018-03-09T14:22:51.714Z,8.00
2018-03-09T14:25:19.900Z,8.00
2018-03-09T14:27:48.073Z,8.00
2018-03-09T14:30:16.363Z,8.10
2018-03-09T14:32:44.563Z,8.30
2018-03-09T14:35:13.539Z,8.30
2018-03-09T14:37:41.839Z,8.30
2018-03-09T14:40:10.849Z,8.20
2018-03-09T14:42:39.062Z,8.20
2018-03-09T14:45:08.162Z,8.20
2018-03-09T14:47:36.344Z,8.20
2018-03-09T14:50:04.510Z,8.20
2018-03-09T14:52:32.754Z,8.10
2018-03-09T14:55:00.930Z,8.20
2018-03-09T14:57:29.178Z,8.30
2018-03-09T14:59:57.373Z,8.30
2018-03-09T15:02:25.562Z,8.40
2018-03-09T15:04:53.770Z,8.30
2018-03-09T15:07:24.335Z,8.20
2018-03-09T15:09:52.578Z,8.10
2018-03-09T15:12:20.746Z,8.10
2018-03-09T15:14:48.939Z,8.00
2018-03-09T15:17:17.898Z,8.10
2018-03-09T15:19:46.159Z,8.10
2018-03-09T15:22:14.338Z,8.20
2018-03-09T15:24:42.556Z,8.30
2018-03-09T15:27:11.619Z,8.40
2018-03-09T15:29:39.872Z,8.40
2018-03-09T15:32:08.103Z,8.40
2018-03-09T15:34:36.296Z,8.30
2018-03-09T15:37:04.517Z,8.20
2018-03-09T15:39:32.702Z,8.20
2018-03-09T15:42:00.924Z,8.10
2018-03-09T15:44:29.143Z,8.00
2018-03-09T15:46:57.321Z,8.00
2018-03-09T15:49:26.314Z,7.90
2018-03-09T15:51:54.521Z,7.90
2018-03-09T15:54:22.745Z,7.90
2018-03-09T15:56:51.014Z,7.80
2018-03-09T15:59:19.242Z,7.70
2018-03-09T16:01:47.441Z,7.70
2018-03-09T16:04:15.629Z,7.70
2018-03-09T16:06:43.857Z,7.70
2018-03-09T16:09:12.068Z,7.70
2018-03-09T16:11:40.249Z,7.70
2018-03-09T16:14:08.486Z,7.70
2018-03-09T16:16:36.672Z,7.60
2018-03-09T16:19:04.864Z,7.60
2018-03-09T16:21:34.196Z,7.60
2018-03-09T16:24:02.532Z,7.50
2018-03-09T16:26:30.843Z,7.50
2018-03-09T16:28:59.318Z,7.50
2018-03-09T16:31:27.712Z,7.50
2018-03-09T16:33:56.196Z,7.40
2018-03-09T16:36:25.405Z,7.60
2018-03-09T16:38:53.731Z,7.60
2018-03-09T16:41:22.087Z,7.50
2018-03-09T16:43:50.371Z,7.50
2018-03-09T16:46:18.700Z,7.50
2018-03-09T16:48:47.787Z,7.50
2018-03-09T16:51:16.858Z,7.50
2018-03-09T16:53:45.169Z,7.50
2018-03-09T16:56:16.158Z,7.40
2018-03-09T16:58:44.827Z,7.40
2018-03-09T17:01:13.183Z,7.40
2018-03-09T17:03:42.284Z,7.20
2018-03-09T17:06:10.835Z,7.10
2018-03-09T17:08:39.548Z,7.10
2018-03-09T17:11:08.191Z,7.10
2018-03-09T17:13:36.535Z,7.10
2018-03-09T17:16:04.999Z,7.00
2018-03-09T17:18:33.817Z,7.00
2018-03-09T17:21:02.536Z,6.80
2018-03-09T17:23:30.740Z,6.80
2018-03-09T17:25:58.951Z,6.70
2018-03-09T17:28:27.224Z,6.60
2018-03-09T17:30:55.536Z,6.50
2018-03-09T17:33:23.850Z,6.40
2018-03-09T17:35:52.210Z,6.40
2018-03-09T17:38:20.402Z,6.40
2018-03-09T17:40:48.607Z,6.40
2018-03-09T17:43:16.810Z,6.50
2018-03-09T17:45:45.150Z,6.50
2018-03-09T17:48:13.407Z,6.60
2018-03-09T17:50:41.701Z,6.50
2018-03-09T17:53:10.736Z,6.30
2018-03-09T17:55:39.694Z,6.20
2018-03-09T17:58:07.909Z,6.20
2018-03-09T18:00:36.992Z,6.40
2018-03-09T18:03:05.174Z,6.40
2018-03-09T18:05:34.129Z,6.50
2018-03-09T18:08:08.737Z,6.50
2018-03-09T18:10:52.199Z,6.50
2018-03-09T18:13:36.680Z,6.50
2018-03-09T18:16:12.237Z,6.50
2018-03-09T18:18:47.467Z,6.50
2018-03-09T18:24:20.034Z,6.40
2018-03-09T18:26:48.284Z,6.30
2018-03-09T18:29:16.613Z,6.20
2018-03-09T18:31:45.606Z,6.10
2018-03-09T18:34:13.888Z,6.10
2018-03-09T18:36:42.078Z,6.10
2018-03-09T18:39:10.501Z,5.90
2018-03-09T18:54:11.313Z,5.70
2018-03-09T19:08:07.998Z,5.70
2018-03-09T19:10:36.290Z,5.40
2018-03-09T19:13:04.757Z,5.30
2018-03-09T19:15:33.139Z,5.30
2018-03-09T19:18:01.315Z,5.30
2018-03-09T19:20:29.477Z,5.30
2018-03-09T19:22:57.754Z,5.20
2018-03-09T19:25:26.014Z,5.20
2018-03-09T19:27:54.274Z,5.10
2018-03-09T19:30:22.458Z,5.20
2018-03-09T19:32:50.685Z,5.20
2018-03-09T19:35:18.919Z,5.30
2018-03-09T19:37:47.122Z,5.40
2018-03-09T19:40:15.342Z,5.50
2018-03-09T19:42:43.552Z,5.70
2018-03-09T19:45:12.811Z,5.70
2018-03-09T19:47:41.784Z,5.70
2018-03-09T19:50:11.483Z,5.70
2018-03-09T19:52:40.464Z,5.70
2018-03-09T19:55:08.647Z,5.70
2018-03-09T19:57:36.912Z,5.70
2018-03-09T20:00:05.119Z,5.70
2018-03-09T20:02:34.234Z,5.50
2018-03-09T20:05:02.783Z,5.50
2018-03-09T20:07:31.149Z,5.50
2018-03-09T20:09:59.514Z,5.50
2018-03-09T20:12:27.717Z,5.50
2018-03-09T20:14:56.041Z,5.40
2018-03-09T20:17:24.280Z,5.40
2018-03-09T20:19:52.720Z,5.40
2018-03-09T20:22:21.052Z,5.40
2018-03-09T20:24:49.220Z,5.50
2018-03-09T20:27:17.493Z,5.40
2018-03-09T20:29:45.685Z,5.30
2018-03-09T20:32:13.932Z,5.30
2018-03-09T20:34:42.159Z,5.20
2018-03-09T20:37:10.403Z,5.20
2018-03-09T20:39:38.676Z,5.20
2018-03-09T20:42:07.571Z,5.20
2018-03-09T20:44:35.860Z,5.30
2018-03-09T20:47:04.113Z,5.30
2018-03-09T20:49:32.342Z,5.30
2018-03-09T20:52:00.548Z,5.30
2018-03-09T20:54:28.804Z,5.30
2018-03-09T20:56:57.003Z,5.30
2018-03-09T20:59:25.209Z,5.20
2018-03-09T21:01:53.473Z,5.20
2018-03-09T21:04:21.814Z,5.20
2018-03-09T21:06:50.792Z,5.10
2018-03-09T21:09:19.752Z,5.00
2018-03-09T21:11:47.964Z,5.00
2018-03-09T21:14:17.014Z,5.00
2018-03-09T21:16:45.226Z,5.00
2018-03-09T21:19:13.556Z,5.00
2018-03-09T21:21:41.801Z,5.00
2018-03-09T21:24:10.210Z,5.10
2018-03-09T21:26:38.555Z,5.00
2018-03-09T21:29:06.747Z,4.90
2018-03-09T21:31:34.946Z,4.90
2018-03-09T21:34:03.207Z,4.90
2018-03-09T21:36:31.547Z,4.90
2018-03-09T21:38:59.782Z,5.00
2018-03-09T21:41:27.985Z,4.90
2018-03-09T21:43:56.333Z,4.90
2018-03-09T21:46:24.569Z,4.90
2018-03-09T21:48:52.927Z,4.90
2018-03-09T21:51:21.923Z,4.80
2018-03-09T21:53:50.127Z,4.80
2018-03-09T21:56:18.424Z,4.80
2018-03-09T21:58:46.630Z,4.80
2018-03-09T22:01:15.650Z,4.80
2018-03-09T22:03:43.964Z,4.80
2018-03-09T22:06:12.259Z,4.70
2018-03-09T22:08:40.542Z,4.70
2018-03-09T22:11:08.752Z,4.70
2018-03-09T22:13:36.990Z,4.70
2018-03-09T22:16:05.201Z,4.80
2018-03-09T22:18:33.436Z,4.80
2018-03-09T22:21:01.650Z,4.80
2018-03-09T22:23:29.856Z,4.70
2018-03-09T22:25:58.058Z,4.70
2018-03-09T22:28:27.178Z,4.50
2018-03-09T22:30:55.447Z,4.50
2018-03-09T22:33:24.476Z,4.50
2018-03-09T22:35:52.716Z,4.50
2018-03-09T22:38:20.902Z,4.50
2018-03-09T22:40:49.156Z,4.50
2018-03-09T22:43:18.135Z,4.30
2018-03-09T22:45:47.099Z,4.20
2018-03-09T22:48:15.313Z,4.20
2018-03-09T22:50:44.295Z,4.30
2018-03-09T22:53:12.514Z,4.20
2018-03-09T22:55:40.714Z,4.40
2018-03-09T22:58:08.908Z,4.40
2018-03-09T23:00:38.091Z,4.30
2018-03-09T23:03:06.372Z,4.30
2018-03-09T23:05:34.780Z,4.30
2018-03-09T23:08:03.004Z,4.40
2018-03-09T23:10:31.223Z,4.40
2018-03-09T23:13:00.328Z,4.40
2018-03-09T23:15:28.503Z,4.40
2018-03-09T23:17:56.917Z,4.50
2018-03-09T23:20:25.132Z,4.50
2018-03-09T23:22:54.116Z,4.40
2018-03-09T23:25:22.323Z,4.40
2018-03-09T23:27:50.654Z,4.40
2018-03-09T23:30:18.952Z,4.40
2018-03-09T23:32:47.239Z,4.30
2018-03-09T23:35:15.590Z,4.40
2018-03-09T23:37:43.789Z,4.50
2018-03-09T23:40:12.879Z,4.50
2018-03-09T23:42:42.039Z,4.50
2018-03-09T23:45:10.227Z,4.50
2018-03-09T23:47:38.482Z,4.50
2018-03-09T23:50:06.674Z,4.50
2018-03-09T23:52:34.862Z,4.40
2018-03-09T23:55:03.795Z,4.30
2018-03-09T23:57:31.982Z,4.30
